Time,TemperatureF,DewpointF,PressureIn,WindDirection,WindDirectionDegrees,WindSpeedMPH,WindSpeedGustMPH,Humidity,HourlyPrecipIn,Conditions,Clouds,dailyrainin,SolarRadiationWatts/m^2,SoftwareType,DateUTC
2013-09-05 00:02:00,68.0,47.0,-100.00,West,271,2.0,7.0,47,0.00,,,0.00,0.000000,,2013-09-05 06:02:00,
2013-09-05 00:12:00,68.0,47.0,-100.00,West,271,2.0,7.0,47,0.00,,,0.00,0.000000,,2013-09-05 06:12:00,
2013-09-05 00:21:00,68.0,47.0,-100.00,West,271,2.0,7.0,47,0.00,,,0.00,0.000000,,2013-09-05 06:21:00,
2013-09-05 00:30:00,63.0,48.0,-100.00,NNW,337,1.0,4.0,57,0.00,,,0.00,0.000000,,2013-09-05 06:30:00,
2013-09-05 00:52:00,63.0,48.0,-100.00,NNW,337,1.0,4.0,57,0.00,,,0.00,0.000000,,2013-09-05 06:52:00,
2013-09-05 01:01:00,63.0,48.0,-100.00,NNW,337,1.0,4.0,57,0.00,,,0.00,0.000000,,2013-09-05 07:01:00,
2013-09-05 01:12:00,63.0,48.0,-100.00,NNW,337,1.0,4.0,57,0.00,,,0.00,0.000000,,2013-09-05 07:12:00,
2013-09-05 01:22:00,63.0,48.0,-100.00,NNW,337,1.0,4.0,57,0.00,,,0.00,0.000000,,2013-09-05 07:22:00,
2013-09-05 01:30:00,65.0,48.0,-100.00,WSW,249,4.0,8.0,54,0.00,,,0.00,0.000000,,2013-09-05 07:30:00,
2013-09-05 01:52:00,65.0,48.0,-100.00,WSW,249,4.0,8.0,54,0.00,,,0.00,0.000000,,2013-09-05 07:52:00,
2013-09-05 02:03:00,65.0,48.0,-100.00,WSW,249,4.0,8.0,54,0.00,,,0.00,0.000000,,2013-09-05 08:03:00,
2013-09-05 02:12:00,65.0,48.0,-100.00,WSW,249,4.0,8.0,54,0.00,,,0.00,0.000000,,2013-09-05 08:12:00,
2013-09-05 02:21:00,65.0,48.0,-100.00,WSW,249,4.0,8.0,54,0.00,,,0.00,0.000000,,2013-09-05 08:21:00,
2013-09-05 02:30:00,63.0,49.0,-100.00,West,269,5.0,7.0,60,0.00,,,0.00,0.000000,,2013-09-05 08:30:00,
2013-09-05 02:52:00,63.0,49.0,-100.00,West,269,5.0,7.0,60,0.00,,,0.00,0.000000,,2013-09-05 08:52:00,
2013-09-05 03:02:00,63.0,49.0,-100.00,West,269,5.0,7.0,60,0.00,,,0.00,0.000000,,2013-09-05 09:02:00,
2013-09-05 03:11:00,63.0,49.0,-100.00,West,269,5.0,7.0,60,0.00,,,0.00,0.000000,,2013-09-05 09:11:00,
2013-09-05 03:22:00,63.0,49.0,-100.00,West,269,5.0,7.0,60,0.00,,,0.00,0.000000,,2013-09-05 09:22:00,
2013-09-05 03:30:00,63.0,49.0,-100.00,WSW,255,8.0,10.0,61,0.00,,,0.00,0.000000,,2013-09-05 09:30:00,
2013-09-05 03:54:00,63.0,49.0,-100.00,WSW,255,8.0,10.0,61,0.00,,,0.00,0.000000,,2013-09-05 09:54:00,
2013-09-05 04:03:00,63.0,49.0,-100.00,WSW,255,8.0,10.0,61,0.00,,,0.00,0.000000,,2013-09-05 10:03:00,
2013-09-05 04:12:00,63.0,49.0,-100.00,WSW,255,8.0,10.0,61,0.00,,,0.00,0.000000,,2013-09-05 10:12:00,
2013-09-05 04:23:00,63.0,49.0,-100.00,WSW,255,8.0,10.0,61,0.00,,,0.00,0.000000,,2013-09-05 10:23:00,
2013-09-05 04:30:00,61.0,47.0,-100.00,WSW,239,5.0,9.0,60,0.00,,,-99.99,0.000000,,2013-09-05 10:30:00,
2013-09-05 04:53:00,61.0,47.0,-100.00,WSW,239,5.0,9.0,60,0.00,,,-99.99,0.000000,,2013-09-05 10:53:00,
2013-09-05 05:03:00,61.0,47.0,-100.00,WSW,239,5.0,9.0,60,0.00,,,-99.99,0.000000,,2013-09-05 11:03:00,
2013-09-05 05:12:00,61.0,47.0,-100.00,WSW,239,5.0,9.0,60,0.00,,,-99.99,0.000000,,2013-09-05 11:12:00,
2013-09-05 05:21:00,61.0,47.0,-100.00,WSW,239,5.0,9.0,60,0.00,,,-99.99,0.000000,,2013-09-05 11:21:00,
2013-09-05 05:30:00,58.0,47.0,-100.00,WSW,244,5.0,7.0,68,0.00,,,0.00,0.000000,,2013-09-05 11:30:00,
2013-09-05 05:52:00,58.0,47.0,-100.00,WSW,244,5.0,7.0,68,0.00,,,0.00,0.000000,,2013-09-05 11:52:00,
2013-09-05 06:01:00,58.0,47.0,-100.00,WSW,244,5.0,7.0,68,0.00,,,0.00,0.000000,,2013-09-05 12:01:00,
2013-09-05 06:12:00,58.0,47.0,-100.00,WSW,244,5.0,7.0,68,0.00,,,0.00,0.000000,,2013-09-05 12:12:00,
2013-09-05 06:21:00,58.0,47.0,-100.00,WSW,244,5.0,7.0,68,0.00,,,0.00,0.000000,,2013-09-05 12:21:00,
2013-09-05 06:30:00,58.0,49.0,-100.00,WSW,256,6.0,7.0,71,0.00,,,0.00,0.000000,,2013-09-05 12:30:00,
2013-09-05 06:52:00,58.0,49.0,-100.00,WSW,256,6.0,7.0,71,0.00,,,0.00,0.000000,,2013-09-05 12:52:00,
2013-09-05 07:01:00,58.0,49.0,-100.00,WSW,256,6.0,7.0,71,0.00,,,0.00,0.000000,,2013-09-05 13:01:00,
2013-09-05 07:12:00,58.0,49.0,-100.00,WSW,256,6.0,7.0,71,0.00,,,0.00,0.000000,,2013-09-05 13:12:00,
2013-09-05 07:21:00,58.0,49.0,-100.00,WSW,256,6.0,7.0,71,0.00,,,0.00,0.000000,,2013-09-05 13:21:00,
2013-09-05 07:30:00,57.0,48.0,-100.00,West,273,3.0,8.0,71,0.00,,,0.00,11.000000,,2013-09-05 13:30:00,
2013-09-05 07:53:00,57.0,48.0,-100.00,West,273,3.0,8.0,71,0.00,,,0.00,11.000000,,2013-09-05 13:53:00,
2013-09-05 08:01:00,57.0,48.0,-100.00,West,273,3.0,8.0,71,0.00,,,0.00,11.000000,,2013-09-05 14:01:00,
2013-09-05 08:12:00,57.0,48.0,-100.00,West,273,3.0,8.0,71,0.00,,,0.00,11.000000,,2013-09-05 14:12:00,
2013-09-05 08:22:00,57.0,48.0,-100.00,West,273,3.0,8.0,71,0.00,,,0.00,11.000000,,2013-09-05 14:22:00,
2013-09-05 08:30:00,63.0,49.0,-100.00,WSW,250,5.0,8.0,61,0.00,,,0.00,135.000000,,2013-09-05 14:30:00,
2013-09-05 08:52:00,63.0,49.0,-100.00,WSW,250,5.0,8.0,61,0.00,,,0.00,135.000000,,2013-09-05 14:52:00,
2013-09-05 09:02:00,63.0,49.0,-100.00,WSW,250,5.0,8.0,61,0.00,,,0.00,135.000000,,2013-09-05 15:02:00,
2013-09-05 09:11:00,63.0,49.0,-100.00,WSW,250,5.0,8.0,61,0.00,,,0.00,135.000000,,2013-09-05 15:11:00,
2013-09-05 09:22:00,63.0,49.0,-100.00,WSW,250,5.0,8.0,61,0.00,,,0.00,135.000000,,2013-09-05 15:22:00,
2013-09-05 09:30:00,69.0,52.0,-100.00,WSW,240,6.0,8.0,55,0.00,,,0.00,257.000000,,2013-09-05 15:30:00,
2013-09-05 09:54:00,69.0,52.0,-100.00,WSW,240,6.0,8.0,55,0.00,,,0.00,257.000000,,2013-09-05 15:54:00,
2013-09-05 10:03:00,69.0,52.0,-100.00,WSW,240,6.0,8.0,55,0.00,,,0.00,257.000000,,2013-09-05 16:03:00,
2013-09-05 10:13:00,69.0,52.0,-100.00,WSW,240,6.0,8.0,55,0.00,,,0.00,257.000000,,2013-09-05 16:13:00,
2013-09-05 10:24:00,69.0,52.0,-100.00,WSW,240,6.0,8.0,55,0.00,,,0.00,257.000000,,2013-09-05 16:24:00,
2013-09-05 10:30:00,78.0,54.0,-100.00,SW,233,4.0,9.0,43,0.00,,,0.00,517.000000,,2013-09-05 16:30:00,
2013-09-05 10:54:00,78.0,54.0,-100.00,SW,233,4.0,9.0,43,0.00,,,0.00,517.000000,,2013-09-05 16:54:00,
2013-09-05 11:03:00,78.0,54.0,-100.00,SW,233,4.0,9.0,43,0.00,,,0.00,517.000000,,2013-09-05 17:03:00,
2013-09-05 11:12:00,78.0,54.0,-100.00,SW,233,4.0,9.0,43,0.00,,,0.00,517.000000,,2013-09-05 17:12:00,
2013-09-05 11:23:00,78.0,54.0,-100.00,SW,233,4.0,9.0,43,0.00,,,0.00,517.000000,,2013-09-05 17:23:00,
2013-09-05 11:30:00,82.0,49.0,-100.00,West,264,6.0,8.0,32,0.00,,,0.00,587.000000,,2013-09-05 17:30:00,
2013-09-05 11:52:00,82.0,49.0,-100.00,West,264,6.0,8.0,32,0.00,,,0.00,587.000000,,2013-09-05 17:52:00,
2013-09-05 12:02:00,82.0,49.0,-100.00,West,264,6.0,8.0,32,0.00,,,0.00,587.000000,,2013-09-05 18:02:00,
2013-09-05 12:12:00,82.0,49.0,-100.00,West,264,6.0,8.0,32,0.00,,,0.00,587.000000,,2013-09-05 18:12:00,
2013-09-05 12:21:00,82.0,49.0,-100.00,West,264,6.0,8.0,32,0.00,,,0.00,587.000000,,2013-09-05 18:21:00,
2013-09-05 12:30:00,88.0,53.0,-100.00,WSW,247,5.0,9.0,30,0.00,,,0.00,724.000000,,2013-09-05 18:30:00,
2013-09-05 12:52:00,88.0,53.0,-100.00,WSW,247,5.0,9.0,30,0.00,,,0.00,724.000000,,2013-09-05 18:52:00,
2013-09-05 13:01:00,88.0,53.0,-100.00,WSW,247,5.0,9.0,30,0.00,,,0.00,724.000000,,2013-09-05 19:01:00,
2013-09-05 13:11:00,88.0,53.0,-100.00,WSW,247,5.0,9.0,30,0.00,,,0.00,724.000000,,2013-09-05 19:11:00,
2013-09-05 13:21:00,88.0,53.0,-100.00,WSW,247,5.0,9.0,30,0.00,,,0.00,724.000000,,2013-09-05 19:21:00,
2013-09-05 13:30:00,92.0,52.0,-100.00,SSE,168,4.0,9.0,26,0.00,,,0.00,574.000000,,2013-09-05 19:30:00,
2013-09-05 13:52:00,92.0,52.0,-100.00,SSE,168,4.0,9.0,26,0.00,,,0.00,574.000000,,2013-09-05 19:52:00,
2013-09-05 14:03:00,92.0,52.0,-100.00,SSE,168,4.0,9.0,26,0.00,,,0.00,574.000000,,2013-09-05 20:03:00,
2013-09-05 14:11:00,92.0,52.0,-100.00,SSE,168,4.0,9.0,26,0.00,,,0.00,574.000000,,2013-09-05 20:11:00,
2013-09-05 14:22:00,92.0,52.0,-100.00,SSE,168,4.0,9.0,26,0.00,,,0.00,574.000000,,2013-09-05 20:22:00,
2013-09-05 14:30:00,90.0,50.0,-100.00,South,182,7.0,14.0,26,0.00,,,0.00,445.000000,,2013-09-05 20:30:00,
2013-09-05 14:52:00,90.0,50.0,-100.00,South,182,7.0,14.0,26,0.00,,,0.00,445.000000,,2013-09-05 20:52:00,
2013-09-05 15:02:00,90.0,50.0,-100.00,South,182,7.0,14.0,26,0.00,,,0.00,445.000000,,2013-09-05 21:02:00,
2013-09-05 15:12:00,90.0,50.0,-100.00,South,182,7.0,14.0,26,0.00,,,0.00,445.000000,,2013-09-05 21:12:00,
2013-09-05 15:21:00,90.0,50.0,-100.00,South,182,7.0,14.0,26,0.00,,,0.00,445.000000,,2013-09-05 21:21:00,
2013-09-05 16:30:00,72.0,62.0,-100.00,SW,224,4.0,24.0,72,0.05,,,0.07,117.000000,,2013-09-05 22:30:00,
2013-09-05 16:53:00,72.0,62.0,-100.00,SW,224,4.0,24.0,72,0.05,,,0.07,117.000000,,2013-09-05 22:53:00,
2013-09-05 17:02:00,72.0,62.0,-100.00,SW,224,4.0,24.0,72,0.05,,,0.07,117.000000,,2013-09-05 23:02:00,
2013-09-05 17:12:00,72.0,62.0,-100.00,SW,224,4.0,24.0,72,0.05,,,0.07,117.000000,,2013-09-05 23:12:00,
2013-09-05 17:22:00,72.0,62.0,-100.00,SW,224,4.0,24.0,72,0.05,,,0.07,117.000000,,2013-09-05 23:22:00,
2013-09-05 18:30:00,81.0,54.0,-100.00,WSW,257,5.0,10.0,40,0.00,,,0.07,407.000000,,2013-09-06 00:30:00,
2013-09-05 18:52:00,81.0,54.0,-100.00,WSW,257,5.0,10.0,40,0.00,,,0.07,407.000000,,2013-09-06 00:52:00,
2013-09-05 19:01:00,81.0,54.0,-100.00,WSW,257,5.0,10.0,40,0.00,,,0.07,407.000000,,2013-09-06 01:01:00,
2013-09-05 19:11:00,81.0,54.0,-100.00,WSW,257,5.0,10.0,40,0.00,,,0.07,407.000000,,2013-09-06 01:11:00,
2013-09-05 19:21:00,81.0,54.0,-100.00,WSW,257,5.0,10.0,40,0.00,,,0.07,407.000000,,2013-09-06 01:21:00,
2013-09-05 19:30:00,76.0,51.0,-100.00,WNW,299,4.0,8.0,42,0.00,,,0.07,180.000000,,2013-09-06 01:30:00,
2013-09-05 19:52:00,76.0,51.0,-100.00,WNW,299,4.0,8.0,42,0.00,,,0.07,180.000000,,2013-09-06 01:52:00,
2013-09-05 20:02:00,76.0,51.0,-100.00,WNW,299,4.0,8.0,42,0.00,,,0.07,180.000000,,2013-09-06 02:02:00,
2013-09-05 20:11:00,76.0,51.0,-100.00,WNW,299,4.0,8.0,42,0.00,,,0.07,180.000000,,2013-09-06 02:11:00,
2013-09-05 20:22:00,76.0,51.0,-100.00,WNW,299,4.0,8.0,42,0.00,,,0.07,180.000000,,2013-09-06 02:22:00,
2013-09-05 20:30:00,71.0,55.0,-100.00,WNW,284,1.0,6.0,57,0.00,,,0.07,6.000000,,2013-09-06 02:30:00,
2013-09-05 20:52:00,71.0,55.0,-100.00,WNW,284,1.0,6.0,57,0.00,,,0.07,6.000000,,2013-09-06 02:52:00,
2013-09-05 21:02:00,71.0,55.0,-100.00,WNW,284,1.0,6.0,57,0.00,,,0.07,6.000000,,2013-09-06 03:02:00,
2013-09-05 21:11:00,71.0,55.0,-100.00,WNW,284,1.0,6.0,57,0.00,,,0.07,6.000000,,2013-09-06 03:11:00,
2013-09-05 21:22:00,71.0,55.0,-100.00,WNW,284,1.0,6.0,57,0.00,,,0.07,6.000000,,2013-09-06 03:22:00,
2013-09-05 21:30:00,69.0,59.0,-100.00,WNW,292,2.0,4.0,70,0.00,,,0.07,0.000000,,2013-09-06 03:30:00,
2013-09-05 21:55:00,69.0,59.0,-100.00,WNW,292,2.0,4.0,70,0.00,,,0.07,0.000000,,2013-09-06 03:55:00,
2013-09-05 22:04:00,69.0,59.0,-100.00,WNW,292,2.0,4.0,70,0.00,,,0.07,0.000000,,2013-09-06 04:04:00,
2013-09-05 22:14:00,69.0,59.0,-100.00,WNW,292,2.0,4.0,70,0.00,,,0.07,0.000000,,2013-09-06 04:14:00,
2013-09-05 22:23:00,69.0,59.0,-100.00,WNW,292,2.0,4.0,70,0.00,,,0.07,0.000000,,2013-09-06 04:23:00,
2013-09-05 22:30:00,66.0,58.0,-100.00,East,92,5.0,7.0,76,0.03,,,0.10,0.000000,,2013-09-06 04:30:00,
2013-09-05 22:54:00,66.0,58.0,-100.00,East,92,5.0,7.0,76,0.03,,,0.10,0.000000,,2013-09-06 04:54:00,
2013-09-05 23:03:00,66.0,58.0,-100.00,East,92,5.0,7.0,76,0.03,,,0.10,0.000000,,2013-09-06 05:03:00,
2013-09-05 23:12:00,66.0,58.0,-100.00,East,92,5.0,7.0,76,0.03,,,0.10,0.000000,,2013-09-06 05:12:00,
2013-09-05 23:23:00,66.0,58.0,-100.00,East,92,5.0,7.0,76,0.03,,,0.10,0.000000,,2013-09-06 05:23:00,
2013-09-05 23:30:00,62.0,58.0,-100.00,NW,312,2.0,6.0,86,0.00,,,0.10,0.000000,,2013-09-06 05:30:00,
2013-09-05 23:52:00,62.0,58.0,-100.00,NW,312,2.0,6.0,86,0.00,,,0.10,0.000000,,2013-09-06 05:52:00,